createdAt,value
2017-09-02T00:00:28.461Z,12.93
2017-09-02T00:01:30.354Z,12.97
2017-09-02T00:02:32.237Z,13.00
2017-09-02T00:03:46.392Z,13.03
2017-09-02T00:04:48.273Z,13.00
2017-09-02T00:05:50.152Z,13.04
2017-09-02T00:06:52.031Z,13.01
2017-09-02T00:07:53.851Z,13.07
2017-09-02T00:08:55.667Z,13.15
2017-09-02T00:09:57.550Z,13.05
2017-09-02T00:10:59.434Z,13.17
2017-09-02T00:12:01.314Z,13.23
2017-09-02T00:13:15.467Z,13.19
2017-09-02T00:14:17.345Z,13.23
2017-09-02T00:15:19.227Z,13.30
2017-09-02T00:16:21.108Z,13.33
2017-09-02T00:17:22.929Z,13.41
2017-09-02T00:18:24.744Z,13.38
2017-09-02T00:19:26.626Z,13.49
2017-09-02T00:20:28.506Z,13.54
2017-09-02T00:21:30.385Z,13.39
2017-09-02T00:22:44.549Z,13.33
2017-09-02T00:23:46.438Z,13.32
2017-09-02T00:24:48.327Z,13.41
2017-09-02T00:25:50.208Z,13.28
2017-09-02T00:26:52.036Z,13.25
2017-09-02T00:27:53.864Z,13.15
2017-09-02T00:28:55.745Z,13.12
2017-09-02T00:29:57.631Z,13.20
2017-09-02T00:30:59.512Z,13.15
2017-09-02T00:32:13.667Z,13.25
2017-09-02T00:33:15.544Z,13.28
2017-09-02T00:34:17.436Z,13.30
2017-09-02T00:35:19.317Z,13.19
2017-09-02T00:36:21.135Z,13.10
2017-09-02T00:37:22.953Z,13.11
2017-09-02T00:38:24.836Z,13.10
2017-09-02T00:39:26.721Z,12.96
2017-09-02T00:40:28.604Z,13.00
2017-09-02T00:41:42.761Z,12.90
2017-09-02T00:42:44.640Z,12.87
2017-09-02T00:43:46.521Z,12.71
2017-09-02T00:44:48.402Z,12.78
2017-09-02T00:45:50.220Z,12.64
2017-09-02T00:46:52.037Z,12.75
2017-09-02T00:47:53.923Z,12.74
2017-09-02T00:48:55.802Z,12.75
2017-09-02T00:49:57.684Z,12.74
2017-09-02T00:51:11.838Z,12.75
2017-09-02T00:52:13.738Z,12.78
2017-09-02T00:53:15.598Z,12.75
2017-09-02T00:54:17.476Z,12.70
2017-09-02T00:55:19.296Z,12.65
2017-09-02T00:56:21.114Z,12.78
2017-09-02T00:57:22.997Z,12.62
2017-09-02T00:58:24.879Z,12.65
2017-09-02T00:59:26.756Z,12.57
2017-09-02T01:00:40.970Z,12.74
2017-09-02T01:01:42.850Z,12.65
2017-09-02T01:02:44.731Z,12.75
2017-09-02T01:03:46.625Z,12.78
2017-09-02T01:04:48.443Z,12.82
2017-09-02T01:05:50.262Z,12.62
2017-09-02T01:06:52.142Z,12.72
2017-09-02T01:07:54.023Z,12.71
2017-09-02T01:08:55.906Z,12.67
2017-09-02T01:10:10.060Z,12.62
2017-09-02T01:11:11.939Z,12.65
2017-09-02T01:12:13.819Z,12.60
2017-09-02T01:13:15.710Z,12.53
2017-09-02T01:14:17.529Z,12.54
2017-09-02T01:15:19.346Z,12.56
2017-09-02T01:16:21.232Z,12.53
2017-09-02T01:17:23.116Z,12.52
2017-09-02T01:18:24.997Z,12.57
2017-09-02T01:19:39.150Z,12.64
2017-09-02T01:20:41.027Z,12.74
2017-09-02T01:21:42.920Z,12.79
2017-09-02T01:22:44.801Z,12.93
2017-09-02T01:23:46.620Z,12.97
2017-09-02T01:24:48.435Z,13.10
2017-09-02T01:25:50.324Z,13.14
2017-09-02T01:26:52.205Z,13.28
2017-09-02T01:27:54.086Z,13.32
2017-09-02T01:29:08.239Z,13.39
2017-09-02T01:30:10.123Z,13.46
2017-09-02T01:31:12.007Z,13.48
2017-09-02T01:32:13.908Z,13.59
2017-09-02T01:33:15.758Z,13.55
2017-09-02T01:34:17.579Z,13.66
2017-09-02T01:35:19.456Z,13.71
2017-09-02T01:36:21.334Z,13.71
2017-09-02T01:37:23.216Z,13.78
2017-09-02T01:38:37.369Z,13.69
2017-09-02T01:39:39.250Z,13.49
2017-09-02T01:40:41.137Z,13.54
2017-09-02T01:41:43.018Z,13.51
2017-09-02T01:42:44.837Z,13.49
2017-09-02T01:43:46.662Z,13.44
2017-09-02T01:44:48.548Z,13.57
2017-09-02T01:45:50.428Z,13.39
2017-09-02T01:46:52.311Z,13.23
2017-09-02T01:48:06.464Z,13.07
2017-09-02T01:49:08.344Z,13.11
2017-09-02T01:50:10.229Z,13.20
2017-09-02T01:51:12.108Z,13.14
2017-09-02T01:52:13.928Z,13.11
2017-09-02T01:53:15.742Z,13.20
2017-09-02T01:54:17.632Z,13.17
2017-09-02T01:55:19.511Z,13.19
2017-09-02T01:56:21.402Z,13.12
2017-09-02T01:57:35.554Z,13.14
2017-09-02T01:58:37.444Z,13.07
2017-09-02T01:59:39.320Z,13.08
2017-09-02T02:00:41.203Z,12.97
2017-09-02T02:01:43.031Z,13.01
2017-09-02T02:02:44.848Z,12.90
2017-09-02T02:03:46.736Z,12.97
2017-09-02T02:04:48.618Z,12.95
2017-09-02T02:05:50.498Z,12.93
2017-09-02T02:07:04.653Z,12.90
2017-09-02T02:08:06.533Z,12.89
2017-09-02T02:09:08.425Z,12.95
2017-09-02T02:10:10.321Z,12.97
2017-09-02T02:11:12.159Z,13.04
2017-09-02T02:12:13.969Z,12.89
2017-09-02T02:13:15.847Z,12.90
2017-09-02T02:14:17.728Z,12.86
2017-09-02T02:15:19.610Z,12.97
2017-09-02T02:16:33.764Z,12.89
2017-09-02T02:17:35.648Z,12.86
2017-09-02T02:18:37.528Z,12.85
2017-09-02T02:19:39.412Z,12.90
2017-09-02T02:20:41.233Z,12.86
2017-09-02T02:21:43.047Z,12.85
2017-09-02T02:22:44.927Z,12.75
2017-09-02T02:23:46.807Z,12.78
2017-09-02T02:24:48.685Z,12.74
2017-09-02T02:26:02.890Z,12.74
2017-09-02T02:27:04.772Z,12.72
2017-09-02T02:28:06.662Z,12.89
2017-09-02T02:29:08.535Z,12.83
2017-09-02T02:30:10.352Z,12.87
2017-09-02T02:31:12.177Z,12.83
2017-09-02T02:32:14.068Z,12.92
2017-09-02T02:33:15.948Z,12.74
2017-09-02T02:34:17.826Z,12.74
2017-09-02T02:35:31.982Z,12.79
2017-09-02T02:36:33.863Z,12.79
2017-09-02T02:37:35.750Z,12.74
2017-09-02T02:38:37.629Z,12.77
2017-09-02T02:39:39.446Z,12.74
2017-09-02T02:40:41.274Z,12.70
2017-09-02T02:41:43.154Z,12.74
2017-09-02T02:42:45.034Z,12.64
2017-09-02T02:43:46.916Z,12.64
2017-09-02T02:45:01.082Z,12.75
2017-09-02T02:46:02.963Z,12.71
2017-09-02T02:47:04.853Z,12.64
2017-09-02T02:48:06.728Z,12.72
2017-09-02T02:49:08.548Z,12.67
2017-09-02T02:50:10.370Z,12.72
2017-09-02T02:51:12.249Z,12.75
2017-09-02T02:52:14.126Z,12.70
2017-09-02T02:53:16.007Z,12.77
2017-09-02T02:54:30.160Z,12.75
2017-09-02T02:55:32.042Z,12.82
2017-09-02T02:56:33.935Z,12.86
2017-09-02T02:57:35.817Z,12.83
2017-09-02T02:58:37.637Z,12.89
2017-09-02T02:59:39.450Z,12.85
2017-09-02T03:00:41.329Z,12.85
2017-09-02T03:01:43.210Z,12.93
2017-09-02T03:02:45.088Z,12.92
2017-09-02T03:03:59.250Z,12.96
2017-09-02T03:05:01.134Z,13.03
2017-09-02T03:06:03.018Z,13.17
2017-09-02T03:07:04.900Z,13.14
2017-09-02T03:08:06.718Z,13.22
2017-09-02T03:09:08.533Z,13.25
2017-09-02T03:10:10.424Z,13.36
2017-09-02T03:11:12.303Z,13.39
2017-09-02T03:12:14.193Z,13.49
2017-09-02T03:13:28.346Z,13.48
2017-09-02T03:14:30.228Z,13.44
2017-09-02T03:15:32.109Z,13.48
2017-09-02T03:16:33.994Z,13.46
2017-09-02T03:17:35.814Z,13.48
2017-09-02T03:18:37.639Z,13.55
2017-09-02T03:19:39.528Z,13.46
2017-09-02T03:20:41.409Z,13.51
2017-09-02T03:21:43.289Z,13.49
2017-09-02T03:22:57.442Z,13.54
2017-09-02T03:23:59.324Z,13.44
2017-09-02T03:25:01.206Z,13.33
2017-09-02T03:26:03.099Z,13.42
2017-09-02T03:27:04.920Z,13.38
2017-09-02T03:28:06.734Z,13.33
2017-09-02T03:29:08.623Z,13.20
2017-09-02T03:30:10.504Z,13.25
2017-09-02T03:31:12.384Z,13.28
2017-09-02T03:32:26.536Z,13.22
2017-09-02T03:33:28.417Z,13.25
2017-09-02T03:34:30.307Z,13.29
2017-09-02T03:35:32.191Z,13.25
2017-09-02T03:36:34.008Z,13.19
2017-09-02T03:37:35.824Z,13.19
2017-09-02T03:38:37.713Z,13.25
2017-09-02T03:39:39.592Z,13.22
2017-09-02T03:40:41.474Z,13.17
2017-09-02T03:41:55.627Z,13.12
2017-09-02T03:42:57.522Z,13.08
2017-09-02T03:43:59.402Z,13.15
2017-09-02T03:45:01.283Z,13.03
2017-09-02T03:46:03.111Z,13.11
2017-09-02T03:47:04.929Z,13.11
2017-09-02T03:48:06.810Z,13.00
2017-09-02T03:49:08.690Z,12.95
2017-09-02T03:50:10.585Z,12.96
2017-09-02T03:51:24.728Z,13.05
2017-09-02T03:52:26.610Z,12.93
2017-09-02T03:53:28.492Z,12.97
2017-09-02T03:54:30.374Z,13.03
2017-09-02T03:55:32.197Z,13.07
2017-09-02T03:56:34.013Z,12.95
2017-09-02T03:57:35.892Z,13.03
2017-09-02T03:58:37.774Z,13.00
2017-09-02T03:59:39.658Z,13.03
2017-09-02T04:00:53.815Z,13.19
2017-09-02T04:01:55.695Z,13.04
2017-09-02T04:02:57.581Z,13.22
2017-09-02T04:03:59.463Z,13.15
2017-09-02T04:05:01.280Z,13.19
2017-09-02T04:06:03.105Z,13.25
2017-09-02T04:07:04.978Z,13.23
2017-09-02T04:08:06.868Z,13.14
2017-09-02T04:09:08.758Z,13.15
2017-09-02T04:10:22.907Z,13.15
2017-09-02T04:11:24.790Z,13.00
2017-09-02T04:12:26.682Z,12.96
2017-09-02T04:13:28.565Z,13.03
2017-09-02T04:14:30.397Z,12.96
2017-09-02T04:15:32.226Z,13.04
2017-09-02T04:16:34.106Z,12.95
2017-09-02T04:17:35.998Z,13.07
2017-09-02T04:18:37.883Z,13.00
2017-09-02T04:19:52.059Z,12.95
2017-09-02T04:20:53.938Z,12.95
2017-09-02T04:21:55.821Z,12.93
2017-09-02T04:22:57.706Z,12.89
2017-09-02T04:23:59.533Z,12.90
2017-09-02T04:25:01.342Z,12.83
2017-09-02T04:26:03.233Z,12.96
2017-09-02T04:27:05.124Z,12.92
2017-09-02T04:28:06.997Z,12.82
2017-09-02T04:29:21.155Z,12.87
2017-09-02T04:30:23.041Z,12.86
2017-09-02T04:31:24.927Z,12.79
2017-09-02T04:32:26.813Z,12.83
2017-09-02T04:33:28.638Z,12.77
2017-09-02T04:34:30.476Z,12.71
2017-09-02T04:35:32.338Z,12.72
2017-09-02T04:36:34.222Z,12.60
2017-09-02T04:37:36.104Z,12.75
2017-09-02T04:38:50.272Z,12.70
2017-09-02T04:39:52.157Z,12.65
2017-09-02T04:40:54.044Z,12.70
2017-09-02T04:41:55.930Z,12.75
2017-09-02T04:42:57.749Z,12.70
2017-09-02T04:43:59.577Z,12.75
2017-09-02T04:45:01.470Z,12.79
2017-09-02T04:46:03.362Z,12.75
2017-09-02T04:47:05.246Z,12.65
2017-09-02T04:48:19.408Z,12.67
2017-09-02T04:49:21.291Z,12.68
2017-09-02T04:50:23.179Z,12.74
2017-09-02T04:51:25.057Z,12.71
2017-09-02T04:52:26.881Z,12.70
2017-09-02T04:53:28.701Z,12.74
2017-09-02T04:54:30.592Z,12.74
2017-09-02T04:55:32.468Z,12.82
2017-09-02T04:56:34.365Z,12.85
2017-09-02T04:57:48.510Z,12.75
2017-09-02T04:58:50.397Z,12.82
2017-09-02T04:59:52.281Z,12.78
2017-09-02T05:00:54.176Z,12.79
2017-09-02T05:01:55.996Z,12.79
2017-09-02T05:02:57.814Z,12.79
2017-09-02T05:03:59.706Z,12.75
2017-09-02T05:05:01.601Z,12.78
2017-09-02T05:06:03.496Z,12.75
2017-09-02T05:07:17.654Z,12.90
2017-09-02T05:08:19.540Z,12.89
2017-09-02T05:09:21.435Z,12.89
2017-09-02T05:10:23.325Z,12.83
2017-09-02T05:11:25.150Z,12.83
2017-09-02T05:12:26.970Z,13.01
2017-09-02T05:13:28.855Z,12.97
2017-09-02T05:14:30.749Z,12.90
2017-09-02T05:15:32.635Z,12.90
2017-09-02T05:16:46.793Z,12.97
2017-09-02T05:17:48.680Z,13.01
2017-09-02T05:18:50.567Z,13.07
2017-09-02T05:19:52.457Z,13.00
2017-09-02T05:20:54.283Z,13.19
2017-09-02T05:21:56.107Z,13.23
2017-09-02T05:22:57.989Z,13.22
2017-09-02T05:23:59.879Z,13.23
2017-09-02T05:25:01.763Z,13.26
2017-09-02T05:26:15.975Z,13.22
2017-09-02T05:27:17.863Z,13.22
2017-09-02T05:28:19.751Z,13.25
2017-09-02T05:29:21.646Z,13.20
2017-09-02T05:30:23.462Z,13.28
2017-09-02T05:31:25.286Z,13.32
2017-09-02T05:32:27.169Z,13.42
2017-09-02T05:33:29.052Z,13.48
2017-09-02T05:34:30.939Z,13.49
2017-09-02T05:35:45.103Z,13.55
2017-09-02T05:36:46.990Z,13.62
2017-09-02T05:37:48.879Z,13.78
2017-09-02T05:38:50.766Z,13.81
2017-09-02T05:39:52.588Z,13.82
2017-09-02T05:40:54.421Z,13.89
2017-09-02T05:41:56.306Z,14.04
2017-09-02T05:42:58.195Z,14.04
2017-09-02T05:44:00.083Z,14.02
2017-09-02T05:45:14.241Z,14.17
2017-09-02T05:46:16.127Z,14.04
2017-09-02T05:47:18.017Z,13.92
2017-09-02T05:48:19.901Z,13.84
2017-09-02T05:49:21.732Z,13.84
2017-09-02T05:50:23.551Z,13.84
2017-09-02T05:51:25.435Z,13.84
2017-09-02T05:52:27.329Z,13.85
2017-09-02T05:53:29.215Z,13.91
2017-09-02T05:54:43.385Z,13.96
2017-09-02T05:55:45.272Z,14.06
2017-09-02T05:56:47.162Z,14.10
2017-09-02T05:57:49.054Z,14.07
2017-09-02T05:58:50.873Z,14.21
2017-09-02T05:59:52.704Z,14.14
2017-09-02T06:00:54.601Z,14.25
2017-09-02T06:01:56.498Z,14.37
2017-09-02T06:02:58.387Z,14.52
2017-09-02T06:04:12.546Z,14.50
2017-09-02T06:05:14.432Z,14.39
2017-09-02T06:06:16.320Z,14.46
2017-09-02T06:07:18.207Z,14.52
2017-09-02T06:08:20.028Z,14.60
2017-09-02T06:09:21.861Z,14.77
2017-09-02T06:10:23.748Z,14.92
2017-09-02T06:11:25.644Z,14.98
2017-09-02T06:12:27.532Z,14.96
2017-09-02T06:13:41.702Z,14.84
2017-09-02T06:14:43.590Z,14.75
2017-09-02T06:15:45.481Z,14.91
2017-09-02T06:16:47.371Z,14.91
2017-09-02T06:17:49.195Z,15.01
2017-09-02T06:18:51.016Z,14.96
2017-09-02T06:19:52.903Z,15.13
2017-09-02T06:20:54.792Z,15.20
2017-09-02T06:21:56.681Z,15.19
2017-09-02T06:23:10.839Z,15.35
2017-09-02T06:24:12.727Z,15.34
2017-09-02T06:25:14.615Z,15.46
2017-09-02T06:26:16.512Z,15.49
2017-09-02T06:27:18.346Z,15.50
2017-09-02T06:28:20.171Z,15.62
2017-09-02T06:29:22.068Z,15.53
2017-09-02T06:30:23.969Z,15.36
2017-09-02T06:31:25.856Z,15.35
2017-09-02T06:32:40.032Z,15.34
2017-09-02T06:33:41.921Z,15.39
2017-09-02T06:34:43.807Z,15.38
2017-09-02T06:35:46.200Z,15.34
2017-09-02T06:36:48.014Z,15.39
2017-09-02T06:37:49.849Z,15.27
2017-09-02T06:38:51.742Z,14.99
2017-09-02T06:39:53.639Z,14.89
2017-09-02T06:40:55.526Z,14.86
2017-09-02T06:42:09.685Z,14.83
2017-09-02T06:43:11.573Z,14.84
2017-09-02T06:44:13.461Z,14.73
2017-09-02T06:45:15.351Z,14.64
2017-09-02T06:46:17.176Z,14.58
2017-09-02T06:47:19.010Z,14.73
2017-09-02T06:48:20.898Z,14.69
2017-09-02T06:49:22.783Z,14.70
2017-09-02T06:50:24.670Z,14.73
2017-09-02T06:51:38.841Z,14.84
2017-09-02T06:52:40.729Z,14.81
2017-09-02T06:53:42.616Z,14.84
2017-09-02T06:54:44.506Z,14.86
2017-09-02T06:55:46.331Z,14.80
2017-09-02T06:56:48.155Z,14.73
2017-09-02T06:57:50.040Z,14.84
2017-09-02T06:58:51.937Z,14.83
2017-09-02T06:59:53.825Z,14.88
2017-09-02T07:01:07.985Z,15.01
2017-09-02T07:02:09.876Z,14.91
2017-09-02T07:03:11.765Z,14.89
2017-09-02T07:04:13.653Z,15.01
2017-09-02T07:05:15.478Z,14.99
2017-09-02T07:06:17.299Z,14.99
2017-09-02T07:07:19.187Z,15.03
2017-09-02T07:08:21.075Z,15.11
2017-09-02T07:09:22.956Z,15.10
2017-09-02T07:10:37.130Z,15.09
2017-09-02T07:11:39.018Z,15.01
2017-09-02T07:12:40.904Z,14.99
2017-09-02T07:13:42.797Z,14.92
2017-09-02T07:14:44.626Z,14.89
2017-09-02T07:15:46.446Z,14.88
2017-09-02T07:16:48.294Z,14.88
2017-09-02T07:17:50.119Z,14.81
2017-09-02T07:18:51.940Z,14.88
2017-09-02T07:20:06.103Z,14.86
2017-09-02T07:21:07.989Z,14.99
2017-09-02T07:22:09.878Z,14.83
2017-09-02T07:23:11.763Z,14.89
2017-09-02T07:24:13.591Z,14.80
2017-09-02T07:25:15.417Z,14.75
2017-09-02T07:26:17.308Z,14.89
2017-09-02T07:27:19.209Z,15.03
2017-09-02T07:28:21.086Z,15.17
2017-09-02T07:29:35.246Z,15.44
2017-09-02T07:30:37.136Z,15.46
2017-09-02T07:31:39.023Z,15.67
2017-09-02T07:32:40.913Z,15.71
2017-09-02T07:33:42.742Z,15.72
2017-09-02T07:34:44.572Z,15.72
2017-09-02T07:35:46.456Z,15.72
2017-09-02T07:36:48.345Z,15.71
2017-09-02T07:37:50.237Z,15.75
2017-09-02T07:39:04.396Z,15.86
2017-09-02T07:40:06.283Z,15.92
2017-09-02T07:41:08.173Z,15.94
2017-09-02T07:42:10.064Z,16.11
2017-09-02T07:43:11.889Z,16.07
2017-09-02T07:44:13.713Z,16.28
2017-09-02T07:45:15.596Z,16.39
2017-09-02T07:46:17.494Z,16.42
2017-09-02T07:47:19.380Z,16.41
2017-09-02T07:48:33.544Z,16.30
2017-09-02T07:49:35.426Z,16.20
2017-09-02T07:50:37.358Z,16.20
2017-09-02T07:51:39.323Z,16.08
2017-09-02T07:52:41.141Z,16.01
2017-09-02T07:53:42.962Z,16.05
2017-09-02T07:54:44.882Z,16.00
2017-09-02T07:55:46.826Z,16.09
2017-09-02T07:56:48.711Z,16.04
2017-09-02T07:58:02.874Z,15.96
2017-09-02T07:59:04.768Z,15.84
2017-09-02T08:00:06.650Z,15.97
2017-09-02T08:01:08.541Z,16.21
2017-09-02T08:02:10.394Z,16.42
2017-09-02T08:03:12.510Z,16.49
2017-09-02T08:04:14.361Z,16.56
2017-09-02T08:05:16.249Z,16.63
2017-09-02T08:06:18.138Z,16.78
2017-09-02T08:07:32.308Z,17.00
2017-09-02T08:08:34.197Z,17.14
2017-09-02T08:09:36.134Z,17.30
2017-09-02T08:10:38.006Z,17.49
2017-09-02T08:11:39.835Z,17.68
2017-09-02T08:12:41.658Z,17.81
2017-09-02T08:13:43.506Z,18.05
2017-09-02T08:14:45.400Z,18.20
2017-09-02T08:15:47.239Z,18.35
2017-09-02T08:17:01.715Z,18.47
2017-09-02T08:18:03.700Z,18.51
2017-09-02T08:19:05.574Z,18.50
2017-09-02T08:20:07.463Z,18.18
2017-09-02T08:21:09.706Z,17.99
2017-09-02T08:22:11.691Z,17.81
2017-09-02T08:23:13.561Z,17.79
2017-09-02T08:24:15.449Z,17.89
2017-09-02T08:25:17.339Z,17.81
2017-09-02T08:26:31.506Z,17.87
2017-09-02T08:27:33.395Z,17.84
2017-09-02T08:28:35.324Z,17.79
2017-09-02T08:29:37.209Z,17.71
2017-09-02T08:30:39.458Z,17.70
2017-09-02T08:31:41.410Z,17.41
2017-09-02T08:32:43.343Z,17.15
2017-09-02T08:33:45.354Z,17.07
2017-09-02T08:34:47.241Z,17.08
2017-09-02T08:36:01.404Z,17.07
2017-09-02T08:37:03.295Z,17.03
2017-09-02T08:38:05.206Z,17.11
2017-09-02T08:39:07.077Z,16.96
2017-09-02T08:40:08.905Z,17.01
2017-09-02T08:41:10.730Z,17.00
2017-09-02T08:42:12.664Z,17.01
2017-09-02T08:43:14.585Z,17.08
2017-09-02T08:44:16.474Z,17.11
2017-09-02T08:45:30.674Z,17.08
2017-09-02T08:46:32.569Z,17.06
2017-09-02T08:47:34.462Z,16.97
2017-09-02T08:48:36.355Z,16.82
2017-09-02T08:49:38.186Z,16.86
2017-09-02T08:50:40.008Z,16.86
2017-09-02T08:51:41.899Z,16.86
2017-09-02T08:52:43.786Z,16.67
2017-09-02T08:53:45.688Z,16.58
2017-09-02T08:54:59.841Z,16.49
2017-09-02T08:56:01.738Z,16.50
2017-09-02T08:57:03.627Z,16.46
2017-09-02T08:58:05.557Z,16.49
2017-09-02T08:59:07.386Z,16.49
2017-09-02T09:00:09.210Z,16.46
2017-09-02T09:01:11.098Z,16.48
2017-09-02T09:02:12.985Z,16.43
2017-09-02T09:03:14.897Z,16.53
2017-09-02T09:04:29.085Z,16.66
2017-09-02T09:05:30.973Z,16.83
2017-09-02T09:06:32.866Z,16.85
2017-09-02T09:07:34.754Z,16.89
2017-09-02T09:08:36.580Z,16.93
2017-09-02T09:09:38.415Z,17.00
2017-09-02T09:10:40.304Z,17.11
2017-09-02T09:11:42.192Z,17.00
2017-09-02T09:12:44.082Z,17.00
2017-09-02T09:13:58.244Z,17.03
2017-09-02T09:15:00.133Z,17.03
2017-09-02T09:16:02.027Z,16.97
2017-09-02T09:17:03.911Z,16.85
2017-09-02T09:18:05.743Z,16.93
2017-09-02T09:19:07.571Z,16.97
2017-09-02T09:20:09.452Z,16.88
2017-09-02T09:21:11.349Z,16.88
2017-09-02T09:22:13.235Z,16.82
2017-09-02T09:23:27.399Z,16.78
2017-09-02T09:24:29.291Z,16.73
2017-09-02T09:25:31.187Z,16.88
2017-09-02T09:26:33.080Z,16.91
2017-09-02T09:27:34.908Z,17.06
2017-09-02T09:28:36.735Z,17.21
2017-09-02T09:29:38.624Z,17.25
2017-09-02T09:30:40.523Z,17.30
2017-09-02T09:31:42.396Z,17.36
2017-09-02T09:32:56.595Z,17.28
2017-09-02T09:33:58.466Z,17.16
2017-09-02T09:35:00.346Z,17.23
2017-09-02T09:36:02.235Z,17.26
2017-09-02T09:37:04.074Z,17.28
2017-09-02T09:38:05.899Z,17.30
2017-09-02T09:39:07.804Z,17.15
2017-09-02T09:40:09.686Z,17.19
2017-09-02T09:41:11.580Z,17.18
2017-09-02T09:42:25.794Z,17.15
2017-09-02T09:43:27.693Z,17.08
2017-09-02T09:44:29.644Z,17.08
2017-09-02T09:45:31.530Z,17.04
2017-09-02T09:46:33.381Z,17.16
2017-09-02T09:47:35.203Z,17.12
2017-09-02T09:48:37.089Z,17.18
2017-09-02T09:49:38.975Z,17.19
2017-09-02T09:50:40.868Z,17.19
2017-09-02T09:51:55.053Z,17.03
2017-09-02T09:52:56.925Z,17.03
2017-09-02T09:53:58.810Z,17.14
2017-09-02T09:55:00.700Z,17.23
2017-09-02T09:56:02.527Z,17.31
2017-09-02T09:57:04.351Z,17.26
2017-09-02T09:58:06.268Z,17.36
2017-09-02T09:59:08.190Z,17.34
2017-09-02T10:00:10.077Z,17.26
2017-09-02T10:01:24.255Z,17.30
2017-09-02T10:02:26.165Z,17.31
2017-09-02T10:03:28.051Z,17.41
2017-09-02T10:04:29.936Z,17.54
2017-09-02T10:05:31.762Z,17.44
2017-09-02T10:06:33.585Z,17.54
2017-09-02T10:07:35.489Z,17.70
2017-09-02T10:08:37.373Z,17.63
2017-09-02T10:09:39.295Z,17.70
2017-09-02T10:10:53.486Z,17.78
2017-09-02T10:11:55.469Z,17.95
2017-09-02T10:12:57.357Z,18.05
2017-09-02T10:13:59.244Z,18.14
2017-09-02T10:15:01.072Z,18.21
2017-09-02T10:16:02.908Z,18.29
2017-09-02T10:17:04.796Z,18.41
2017-09-02T10:18:06.681Z,18.44
2017-09-02T10:19:08.574Z,18.44
2017-09-02T10:20:22.744Z,18.42
2017-09-02T10:21:24.636Z,18.50
2017-09-02T10:22:26.525Z,18.54
2017-09-02T10:23:28.422Z,18.41
2017-09-02T10:24:30.249Z,18.39
2017-09-02T10:25:32.068Z,18.57
2017-09-02T10:26:33.955Z,18.54
2017-09-02T10:27:35.844Z,18.62
2017-09-02T10:28:37.753Z,18.55
2017-09-02T10:29:51.919Z,18.50
2017-09-02T10:30:53.806Z,18.54
2017-09-02T10:31:55.694Z,18.58
2017-09-02T10:32:57.578Z,18.65
2017-09-02T10:33:59.421Z,18.66
2017-09-02T10:35:01.249Z,18.87
2017-09-02T10:36:03.138Z,19.04
2017-09-02T10:37:05.025Z,19.02
2017-09-02T10:38:06.913Z,19.18
2017-09-02T10:39:21.087Z,19.25
2017-09-02T10:40:22.974Z,19.41
2017-09-02T10:41:24.863Z,19.41
2017-09-02T10:42:26.757Z,19.16
2017-09-02T10:43:28.582Z,19.04
2017-09-02T10:44:30.409Z,18.95
2017-09-02T10:45:32.295Z,18.90
2017-09-02T10:46:34.185Z,18.85
2017-09-02T10:47:36.072Z,18.88
2017-09-02T10:48:50.248Z,18.88
2017-09-02T10:49:52.136Z,19.07
2017-09-02T10:50:54.035Z,19.07
2017-09-02T10:51:55.923Z,19.06
2017-09-02T10:52:57.754Z,19.23
2017-09-02T10:53:59.583Z,19.23
2017-09-02T10:55:01.478Z,19.47
2017-09-02T10:56:03.358Z,19.54
2017-09-02T10:57:05.246Z,19.50
2017-09-02T10:58:19.402Z,19.61
2017-09-02T10:59:21.229Z,19.73
2017-09-02T11:00:23.119Z,19.59
2017-09-02T11:01:25.007Z,19.63
2017-09-02T11:02:26.905Z,19.56
2017-09-02T11:03:28.731Z,19.43
2017-09-02T11:04:30.570Z,19.31
2017-09-02T11:05:32.460Z,19.31
2017-09-02T11:06:34.347Z,19.07
2017-09-02T11:07:48.572Z,19.07
2017-09-02T11:08:50.463Z,19.06
2017-09-02T11:09:52.349Z,18.87
2017-09-02T11:10:54.235Z,18.76
2017-09-02T11:11:56.074Z,18.76
2017-09-02T11:12:57.910Z,18.70
2017-09-02T11:13:59.798Z,18.75
2017-09-02T11:15:01.685Z,18.72
2017-09-02T11:16:03.580Z,18.70
2017-09-02T11:17:17.741Z,18.78
2017-09-02T11:18:19.628Z,18.84
2017-09-02T11:19:21.516Z,19.06
2017-09-02T11:20:23.410Z,19.07
2017-09-02T11:21:25.244Z,18.90
2017-09-02T11:22:27.079Z,18.88
2017-09-02T11:23:28.987Z,18.91
2017-09-02T11:24:30.900Z,18.95
2017-09-02T11:25:32.810Z,19.10
2017-09-02T11:26:47.004Z,19.08
2017-09-02T11:27:48.923Z,19.16
2017-09-02T11:28:50.833Z,19.14
2017-09-02T11:29:52.729Z,19.06
2017-09-02T11:30:54.582Z,19.07
2017-09-02T11:31:56.436Z,19.16
2017-09-02T11:32:58.347Z,19.16
2017-09-02T11:34:00.259Z,19.39
2017-09-02T11:35:02.160Z,19.55
2017-09-02T11:36:16.341Z,19.83
2017-09-02T11:37:18.235Z,20.01
2017-09-02T11:38:20.127Z,20.16
2017-09-02T11:39:22.030Z,20.20
2017-09-02T11:40:23.865Z,20.36
2017-09-02T11:41:25.707Z,20.29
2017-09-02T11:42:27.610Z,20.21
2017-09-02T11:43:29.522Z,20.05
2017-09-02T11:44:31.413Z,20.08
2017-09-02T11:45:45.583Z,20.06
2017-09-02T11:46:47.472Z,20.02
2017-09-02T11:47:49.370Z,20.21
2017-09-02T11:48:51.283Z,20.11
2017-09-02T11:49:53.134Z,19.91
2017-09-02T11:50:54.977Z,19.56
2017-09-02T11:51:56.912Z,19.44
2017-09-02T11:52:58.799Z,19.18
2017-09-02T11:54:00.686Z,19.08
2017-09-02T11:55:14.854Z,19.16
2017-09-02T11:56:16.744Z,19.22
2017-09-02T11:57:18.635Z,19.54
2017-09-02T11:58:20.526Z,19.71
2017-09-02T11:59:22.357Z,19.81
2017-09-02T12:00:24.186Z,19.87
2017-09-02T12:01:26.074Z,19.95
2017-09-02T12:02:27.964Z,19.99
2017-09-02T12:03:29.854Z,20.02
2017-09-02T12:04:44.033Z,19.96
2017-09-02T12:05:45.923Z,19.95
2017-09-02T12:06:47.814Z,19.74
2017-09-02T12:07:49.702Z,19.62
2017-09-02T12:08:51.549Z,19.37
2017-09-02T12:09:53.372Z,19.11
2017-09-02T12:10:55.271Z,19.07
2017-09-02T12:11:57.171Z,19.00
2017-09-02T12:12:59.055Z,19.16
2017-09-02T12:14:13.219Z,19.07
2017-09-02T12:15:15.113Z,19.18
2017-09-02T12:16:17.007Z,19.41
2017-09-02T12:17:18.898Z,19.62
2017-09-02T12:18:20.728Z,19.68
2017-09-02T12:19:22.564Z,19.71
2017-09-02T12:20:24.450Z,19.92
2017-09-02T12:21:26.342Z,19.94
2017-09-02T12:22:28.230Z,19.88
2017-09-02T12:23:42.398Z,19.86
2017-09-02T12:24:44.289Z,19.88
2017-09-02T12:25:46.176Z,19.99
2017-09-02T12:26:48.070Z,19.88
2017-09-02T12:27:49.892Z,19.66
2017-09-02T12:28:51.750Z,19.71
2017-09-02T12:29:53.875Z,19.63
2017-09-02T12:30:55.728Z,19.61
2017-09-02T12:31:57.635Z,19.65
2017-09-02T12:33:11.808Z,19.59
2017-09-02T12:34:13.698Z,19.63
2017-09-02T12:35:15.585Z,19.76
2017-09-02T12:36:17.472Z,19.77
2017-09-02T12:37:19.308Z,19.84
2017-09-02T12:38:21.140Z,19.98
2017-09-02T12:39:23.022Z,20.01
2017-09-02T12:40:24.929Z,20.10
2017-09-02T12:41:26.822Z,20.06
2017-09-02T12:42:40.990Z,20.18
2017-09-02T12:43:42.881Z,20.33
2017-09-02T12:44:44.772Z,20.35
2017-09-02T12:45:46.663Z,20.42
2017-09-02T12:46:48.492Z,20.55
2017-09-02T12:47:50.332Z,20.54
2017-09-02T12:48:52.212Z,20.57
2017-09-02T12:49:54.126Z,20.52
2017-09-02T12:50:55.991Z,20.51
2017-09-02T12:52:10.159Z,20.54
2017-09-02T12:53:12.046Z,20.69
2017-09-02T12:54:13.935Z,20.94
2017-09-02T12:55:15.825Z,21.24
2017-09-02T12:56:17.660Z,21.46
2017-09-02T12:57:19.489Z,21.72
2017-09-02T12:58:21.380Z,21.98
2017-09-02T12:59:23.270Z,22.14
2017-09-02T13:00:25.158Z,22.33
2017-09-02T13:01:39.325Z,22.21
2017-09-02T13:02:41.229Z,21.84
2017-09-02T13:03:43.116Z,21.52
2017-09-02T13:04:45.007Z,21.28
2017-09-02T13:05:46.839Z,20.98
2017-09-02T13:06:48.665Z,20.88
2017-09-02T13:07:50.553Z,20.77
2017-09-02T13:08:52.442Z,20.72
2017-09-02T13:09:54.333Z,20.59
2017-09-02T13:11:08.500Z,20.69
2017-09-02T13:12:10.389Z,20.77
2017-09-02T13:13:12.281Z,20.77
2017-09-02T13:14:14.171Z,20.88
2017-09-02T13:15:16.001Z,20.92
2017-09-02T13:16:17.830Z,20.98
2017-09-02T13:17:19.720Z,20.91
2017-09-02T13:18:21.609Z,20.97
2017-09-02T13:19:23.497Z,20.77
2017-09-02T13:20:37.657Z,20.69
2017-09-02T13:21:39.578Z,20.58
2017-09-02T13:22:41.467Z,20.57
2017-09-02T13:23:43.357Z,20.36
2017-09-02T13:24:45.187Z,20.38
2017-09-02T13:25:47.014Z,20.35
2017-09-02T13:26:48.901Z,20.29
2017-09-02T13:27:51.132Z,20.35
2017-09-02T13:28:53.020Z,20.33
2017-09-02T13:30:07.902Z,20.41
2017-09-02T13:31:10.236Z,20.32
2017-09-02T13:32:12.595Z,20.32
2017-09-02T13:33:15.034Z,20.18
2017-09-02T13:34:17.389Z,20.10